createdAt,value
2022-08-30T00:00:24.874Z,0.01
2022-08-30T00:15:20.731Z,0
2022-08-30T00:30:17.083Z,0
2022-08-30T00:45:12.502Z,0
2022-08-30T01:00:08.586Z,0
2022-08-30T01:15:04.331Z,0
2022-08-30T01:30:00.188Z,0
2022-08-30T01:44:56.348Z,0
2022-08-30T01:59:51.950Z,0
2022-08-30T02:14:48.003Z,0.01
2022-08-30T02:29:44.479Z,0
2022-08-30T02:44:40.776Z,0
2022-08-30T02:59:36.506Z,0
2022-08-30T03:14:32.412Z,0
2022-08-30T03:29:28.673Z,0
2022-08-30T03:44:24.748Z,0
2022-08-30T03:59:20.767Z,0.01
2022-08-30T04:14:16.979Z,0
2022-08-30T04:29:13.214Z,0.02
2022-08-30T04:44:09.257Z,0.01
2022-08-30T04:59:05.318Z,0.02
2022-08-30T05:14:00.996Z,0.03
2022-08-30T05:28:57.584Z,0.05
2022-08-30T05:43:54.147Z,0.05
2022-08-30T05:58:50.888Z,0.07
2022-08-30T06:13:47.082Z,0.08
2022-08-30T06:28:43.533Z,0.1
2022-08-30T06:43:40.135Z,0.1
2022-08-30T06:58:36.776Z,0.1
2022-08-30T07:13:32.757Z,0.1
2022-08-30T07:28:29.266Z,0.12
2022-08-30T07:43:25.988Z,0.12
2022-08-30T07:58:22.817Z,0.15
2022-08-30T08:13:19.601Z,0.15
2022-08-30T08:28:16.405Z,0.17
2022-08-30T08:43:13.435Z,0.19
2022-08-30T08:58:10.548Z,0.53
2022-08-30T09:13:07.814Z,0.83
2022-08-30T09:28:05.271Z,0.93
2022-08-30T09:43:02.878Z,1.04
2022-08-30T09:57:59.986Z,0.98
2022-08-30T10:12:57.367Z,0.71
2022-08-30T10:27:54.493Z,1.63
2022-08-30T10:42:52.171Z,2.18
2022-08-30T10:57:48.878Z,0.31
2022-08-30T11:12:45.587Z,0.17
2022-08-30T11:27:42.898Z,0.39
2022-08-30T11:57:36.442Z,0.43
2022-08-30T12:12:33.275Z,1.72
2022-08-30T12:27:32.481Z,2.14
2022-08-30T12:42:26.932Z,1.11
2022-08-30T12:57:34.761Z,3.04
2022-08-30T13:12:19.126Z,2.78
2022-08-30T13:27:15.362Z,0.3
2022-08-30T13:57:06.385Z,0.23
2022-08-30T14:12:02.771Z,0.16
2022-08-30T14:26:58.293Z,0.2
2022-08-30T14:41:54.000Z,0.17
2022-08-30T14:56:49.706Z,0.2
2022-08-30T15:11:46.880Z,0.18
2022-08-30T15:26:41.471Z,0.11
2022-08-30T15:41:37.590Z,0.13
2022-08-30T15:56:33.410Z,0.12
2022-08-30T16:11:29.399Z,0.1
2022-08-30T16:26:25.758Z,0.11
2022-08-30T16:41:21.910Z,0.1
2022-08-30T16:56:18.091Z,0.1
2022-08-30T17:11:14.359Z,0.09
2022-08-30T17:26:10.614Z,0.05
2022-08-30T17:41:06.318Z,0.04
2022-08-30T17:56:02.128Z,0.03
2022-08-30T18:10:57.502Z,0.04
2022-08-30T18:25:53.070Z,0.02
2022-08-30T18:40:48.858Z,0.01
2022-08-30T18:55:44.266Z,0.02
2022-08-30T19:10:40.254Z,0
2022-08-30T19:25:36.623Z,0
2022-08-30T19:40:32.739Z,0.01
2022-08-30T19:55:30.213Z,0
2022-08-30T20:10:25.869Z,0
2022-08-30T20:25:21.569Z,0.01
2022-08-30T20:40:18.138Z,0
2022-08-30T20:55:14.380Z,0.01
2022-08-30T22:09:54.617Z,0
2022-08-30T22:24:50.940Z,0
2022-08-30T22:39:46.744Z,0.01
2022-08-30T22:54:43.236Z,0.02
2022-08-30T23:09:39.427Z,0.01
2022-08-30T23:24:35.575Z,0
2022-08-30T23:39:31.950Z,0.01
2022-08-30T23:54:28.186Z,0.01
